Bookmark and Share
Track history (hours):
 

Meishomaru

Last reported at 2014-Apr-23 05:21 UTC. Time now 2014-Apr-24 02:20 UTC.
Position N 34°07' E 134°47'.

Length 68 m; draft 3.8 m.

Type: Tanker. MMSI: 431001216.

NotesDate/timePositionNaut miles runAvg speedWind from/ knotsBaromVisibWave heightAir tempDewpointWater temp
2014-Apr-23 05:21N 34°07' E 134°47'22210.2
2014-Apr-22 07:31N 34°53' E 139°11'1311.7
2014-Apr-22 06:24N 34°60' E 139°24'1011.9
2014-Apr-22 05:33N 35°04' E 139°35'1212.2
2014-Apr-22 04:33N 35°12' E 139°46'1212.1
2014-Apr-22 03:33N 35°24' E 139°43'1312.5
2014-Apr-22 02:33N 35°31' E 139°56'6 5.4
2014-Apr-22 01:31N 35°31' E 140°02'0 0.0
2014-Apr-22 00:31N 35°31' E 140°02'0 0.0
2014-Apr-21 23:31N 35°31' E 140°02'0 0.0
2014-Apr-21 22:31N 35°31' E 140°02'6 6.0
2014-Apr-21 21:33N 35°29' E 139°56'0 0.0
2014-Apr-21 20:31N 35°29' E 139°56'0 0.0
2014-Apr-21 19:31N 35°29' E 139°56'0 0.0
2014-Apr-21 18:31N 35°29' E 139°56'0 0.0
2014-Apr-21 17:31N 35°29' E 139°56'0 0.0
2014-Apr-21 16:31N 35°29' E 139°56'0 0.0
2014-Apr-21 15:25N 35°29' E 139°56'0 0.0
2014-Apr-21 14:31N 35°29' E 139°56'0 0.0
2014-Apr-21 13:28N 35°29' E 139°56'0 0.1
2014-Apr-21 12:31N 35°29' E 139°56'0 0.1
2014-Apr-21 11:31N 35°29' E 139°56'0 0.0
2014-Apr-21 10:31N 35°29' E 139°56'0 0.0
2014-Apr-21 09:22N 35°29' E 139°56'0 0.0
2014-Apr-21 08:28N 35°29' E 139°56'0 0.0
2014-Apr-21 07:31N 35°29' E 139°56'4 4.2
2014-Apr-21 06:33N 35°30' E 139°51'5 4.0
2014-Apr-21 05:21N 35°31' E 139°45'0 0.0
2014-Apr-21 04:30N 35°31' E 139°45'0 0.0
2014-Apr-21 03:33N 35°31' E 139°45'1 0.8
2014-Apr-21 02:33N 35°30' E 139°45'9 9.0
2014-Apr-21 01:33N 35°21' E 139°45'1111.1
2014-Apr-21 00:33N 35°10' E 139°46'1211.9
2014-Apr-20 23:33N 35°01' E 139°38'  
2014-Apr-16 10:28N 34°37' E 134°55'910.3
2014-Apr-16 09:34N 34°31' E 135°04'1513.5
2014-Apr-16 08:25N 34°16' E 134°59'1112.0
2014-Apr-16 07:30N 34°05' E 135°01'212 9.2
2014-Apr-15 08:31N 34°52' E 139°11'2010.2
2014-Apr-15 06:32N 35°03' E 139°32'9 9.7
2014-Apr-15 05:34N 35°07' E 139°42'20 9.9
2014-Apr-15 03:34N 35°27' E 139°46'4 0.7
2014-Apr-14 22:34N 35°29' E 139°49'0 0.0
2014-Apr-14 21:31N 35°29' E 139°49'0 0.0
2014-Apr-14 20:31N 35°29' E 139°49'0 0.0
2014-Apr-14 17:31N 35°29' E 139°49'0 0.0
2014-Apr-14 16:31N 35°29' E 139°49'0 0.0
2014-Apr-14 15:31N 35°29' E 139°49'0 0.0
2014-Apr-14 13:31N 35°29' E 139°49'0 0.0
2014-Apr-14 11:31N 35°29' E 139°49'0 0.0
2014-Apr-14 10:31N 35°29' E 139°49'0 0.1
2014-Apr-14 09:31N 35°29' E 139°49'0 0.0
2014-Apr-14 08:31N 35°29' E 139°49'0 0.0
2014-Apr-14 06:31N 35°29' E 139°49'0 0.0
2014-Apr-14 05:31N 35°29' E 139°49'0 0.0
2014-Apr-13 22:25N 35°29' E 139°49'0 0.1
2014-Apr-13 21:31N 35°29' E 139°49'0 0.0
2014-Apr-13 20:25N 35°29' E 139°49'0 0.0
2014-Apr-13 19:31N 35°29' E 139°49'0 0.0
2014-Apr-13 18:31N 35°29' E 139°49'0 0.0
2014-Apr-13 17:22N 35°29' E 139°49'0 0.0
2014-Apr-13 16:28N 35°29' E 139°49'0 0.1
2014-Apr-13 15:31N 35°29' E 139°49'3 3.3
2014-Apr-13 14:33N 35°26' E 139°48'1211.6
2014-Apr-13 13:33N 35°15' E 139°47'1312.8
2014-Apr-13 12:33N 35°02' E 139°44'1111.0
2014-Apr-13 11:33N 34°52' E 139°50'1311.7
2014-Apr-13 10:26N 34°57' E 140°05'4011.8
2014-Apr-13 07:03N 35°25' E 140°40'  

Dump ship's entire track history

sailing weather and tide predictions

Meishomaru — JD3044 — position and weather